createdAt,value
2016-06-18T00:00:45.616Z,15.01
2016-06-18T00:02:45.670Z,14.96
2016-06-18T00:03:45.705Z,14.96
2016-06-18T00:05:00.630Z,14.94
2016-06-18T00:06:45.856Z,14.95
2016-06-18T00:07:45.782Z,14.86
2016-06-18T00:08:45.816Z,14.84
2016-06-18T00:09:45.867Z,14.86
2016-06-18T00:10:45.871Z,14.91
2016-06-18T00:12:00.796Z,14.92
2016-06-18T00:12:45.925Z,14.94
2016-06-18T00:13:45.959Z,14.96
2016-06-18T00:14:45.946Z,14.83
2016-06-18T00:15:45.981Z,14.77
2016-06-18T00:16:46.016Z,14.75
2016-06-18T00:17:46.019Z,14.75
2016-06-18T00:19:46.088Z,14.84
2016-06-18T00:21:01.014Z,14.62
2016-06-18T00:21:46.128Z,14.73
2016-06-18T00:22:46.162Z,14.65
2016-06-18T00:23:46.197Z,14.72
2016-06-18T00:24:46.200Z,14.73
2016-06-18T00:25:46.828Z,14.73
2016-06-18T00:26:46.254Z,14.7
2016-06-18T00:27:46.273Z,14.8
2016-06-18T00:28:46.308Z,14.75
2016-06-18T00:29:46.342Z,14.77
2016-06-18T00:30:46.970Z,14.78
2016-06-18T00:31:46.376Z,14.77
2016-06-18T00:32:46.413Z,14.69
2016-06-18T00:33:46.430Z,14.72
2016-06-18T00:34:46.450Z,14.68
2016-06-18T00:36:01.379Z,14.72
2016-06-18T00:37:01.414Z,14.64
2016-06-18T00:38:01.433Z,14.65
2016-06-18T00:38:46.542Z,14.64
2016-06-18T00:40:01.471Z,14.51
2016-06-18T00:40:46.596Z,14.58
2016-06-18T00:41:46.615Z,14.51
2016-06-18T00:42:46.650Z,14.47
2016-06-18T00:44:01.579Z,14.5
2016-06-18T00:44:46.688Z,14.52
2016-06-18T00:45:46.707Z,14.47
2016-06-18T00:46:46.741Z,14.51
2016-06-18T00:47:46.761Z,14.54
2016-06-18T00:48:46.795Z,14.52
2016-06-18T00:49:46.814Z,14.47
2016-06-18T00:50:46.833Z,14.52
2016-06-18T00:53:46.938Z,14.46
2016-06-18T00:54:46.941Z,14.45
2016-06-18T00:55:46.945Z,14.4
2016-06-18T00:56:46.995Z,14.5
2016-06-18T00:57:46.999Z,14.43
2016-06-18T00:58:47.033Z,14.39
2016-06-18T01:00:01.962Z,14.45
2016-06-18T01:00:47.087Z,14.42
2016-06-18T01:01:47.106Z,14.37
2016-06-18T01:02:47.125Z,14.39
2016-06-18T01:03:47.159Z,14.4
2016-06-18T01:04:47.241Z,14.43
2016-06-18T01:05:47.260Z,14.37
2016-06-18T01:06:47.233Z,14.37
2016-06-18T01:07:47.267Z,14.37
2016-06-18T01:08:47.271Z,14.43
2016-06-18T01:10:02.199Z,14.52
2016-06-18T01:10:47.324Z,14.52
2016-06-18T01:11:47.344Z,14.54
2016-06-18T01:12:47.379Z,14.58
2016-06-18T01:13:47.397Z,14.6
2016-06-18T01:14:47.417Z,14.61
2016-06-18T01:16:02.954Z,14.58
2016-06-18T01:16:47.470Z,14.65
2016-06-18T01:17:48.099Z,14.6
2016-06-18T01:18:47.524Z,14.61
2016-06-18T01:19:47.559Z,14.55
2016-06-18T01:20:48.171Z,14.57
2016-06-18T01:21:47.597Z,14.6
2016-06-18T01:22:47.616Z,14.68
2016-06-18T01:24:02.546Z,14.62
2016-06-18T01:24:47.671Z,14.65
2016-06-18T01:25:47.688Z,14.6
2016-06-18T01:26:47.724Z,14.52
2016-06-18T01:27:47.728Z,14.55
2016-06-18T01:29:02.656Z,14.52
2016-06-18T01:30:03.300Z,14.47
2016-06-18T01:30:47.816Z,14.39
2016-06-18T01:32:02.745Z,14.43
2016-06-18T01:32:47.854Z,14.4
2016-06-18T01:33:47.889Z,14.39
2016-06-18T01:34:47.908Z,14.42
2016-06-18T01:35:47.927Z,14.42
2016-06-18T01:36:48.586Z,14.4
2016-06-18T01:37:47.980Z,14.37
2016-06-18T01:38:48.000Z,14.4
2016-06-18T01:39:48.019Z,14.33
2016-06-18T01:41:02.963Z,14.39
2016-06-18T01:41:48.073Z,14.37
2016-06-18T01:43:03.001Z,14.43
2016-06-18T01:43:48.126Z,14.4
2016-06-18T01:44:48.145Z,14.42
2016-06-18T01:45:48.165Z,14.42
2016-06-18T01:47:03.094Z,14.46
2016-06-18T01:48:48.237Z,14.42
2016-06-18T01:49:48.272Z,14.47
2016-06-18T01:50:48.292Z,14.47
2016-06-18T01:51:48.325Z,14.39
2016-06-18T01:53:48.365Z,14.4
2016-06-18T01:54:48.402Z,14.32
2016-06-18T01:55:48.408Z,14.4
2016-06-18T01:57:48.499Z,14.45
2016-06-18T01:58:48.506Z,14.51
2016-06-18T01:59:48.527Z,14.4
2016-06-18T02:00:48.562Z,14.43
2016-06-18T02:01:48.598Z,14.4
2016-06-18T02:02:48.603Z,14.46
2016-06-18T02:03:48.623Z,14.42
2016-06-18T02:04:48.658Z,14.36
2016-06-18T02:05:48.693Z,14.36
2016-06-18T02:08:48.752Z,14.37
2016-06-18T02:09:48.772Z,14.28
2016-06-18T02:10:48.806Z,14.18
2016-06-18T02:11:48.841Z,14.22
2016-06-18T02:12:48.845Z,14.21
2016-06-18T02:13:48.865Z,14.2
2016-06-18T02:15:48.919Z,14.17
2016-06-18T02:16:48.953Z,14.24
2016-06-18T02:17:48.973Z,14.21
2016-06-18T02:19:03.900Z,14.12
2016-06-18T02:19:49.010Z,14.12
2016-06-18T02:20:49.045Z,14.18
2016-06-18T02:21:49.079Z,14.2
2016-06-18T02:22:49.099Z,14.22
2016-06-18T02:23:49.118Z,14.22
2016-06-18T02:24:49.153Z,14.27
2016-06-18T02:25:49.187Z,14.22
2016-06-18T02:26:49.191Z,14.18
2016-06-18T02:27:49.210Z,14.21
2016-06-18T02:28:49.244Z,14.21
2016-06-18T02:29:49.264Z,14.14
2016-06-18T02:30:49.283Z,14.06
2016-06-18T02:31:49.317Z,14.14
2016-06-18T02:32:49.337Z,14.09
2016-06-18T02:33:49.356Z,14.06
2016-06-18T02:35:04.285Z,14.14
2016-06-18T02:35:49.410Z,14.06
2016-06-18T02:36:49.429Z,14.04
2016-06-18T02:37:50.056Z,14.06
2016-06-18T02:38:49.482Z,14.04
2016-06-18T02:39:49.502Z,13.99
2016-06-18T02:40:49.521Z,13.91
2016-06-18T02:41:49.555Z,14.02
2016-06-18T02:42:49.574Z,13.92
2016-06-18T02:43:49.593Z,13.97
2016-06-18T02:44:49.628Z,13.92
2016-06-18T02:45:49.648Z,13.99
2016-06-18T02:46:49.681Z,13.96
2016-06-18T02:47:49.701Z,14.03
2016-06-18T02:48:49.720Z,14.02
2016-06-18T02:49:49.755Z,14.02
2016-06-18T02:51:04.683Z,13.99
2016-06-18T02:51:49.808Z,14
2016-06-18T02:52:49.828Z,13.96
2016-06-18T02:53:49.862Z,14.02
2016-06-18T02:54:49.865Z,13.87
2016-06-18T02:55:49.900Z,13.92
2016-06-18T02:57:49.939Z,14
2016-06-18T02:58:49.958Z,13.99
2016-06-18T02:59:50.008Z,13.97
2016-06-18T03:00:50.011Z,13.92
2016-06-18T03:01:50.671Z,13.89
2016-06-18T03:02:50.081Z,13.91
2016-06-18T03:03:50.085Z,13.91
2016-06-18T03:04:50.119Z,14.03
2016-06-18T03:05:50.138Z,13.99
2016-06-18T03:07:05.067Z,14
2016-06-18T03:07:50.177Z,14.02
2016-06-18T03:08:50.211Z,13.88
2016-06-18T03:09:50.261Z,13.89
2016-06-18T03:10:50.265Z,13.97
2016-06-18T03:12:50.303Z,13.95
2016-06-18T03:13:50.337Z,13.96
2016-06-18T03:14:50.356Z,14
2016-06-18T03:15:50.391Z,13.95
2016-06-18T03:16:50.411Z,13.97
2016-06-18T03:17:50.430Z,13.97
2016-06-18T03:19:05.358Z,13.97
2016-06-18T03:19:50.468Z,14.04
2016-06-18T03:20:50.486Z,13.91
2016-06-18T03:22:05.432Z,14.06
2016-06-18T03:22:50.557Z,13.95
2016-06-18T03:23:50.575Z,14.04
2016-06-18T03:24:50.579Z,13.96
2016-06-18T03:25:50.629Z,14.06
2016-06-18T03:26:50.648Z,14.04
2016-06-18T03:27:50.667Z,14.1
2016-06-18T03:28:50.686Z,14.1
2016-06-18T03:29:50.721Z,14.02
2016-06-18T03:31:50.760Z,14.1
2016-06-18T03:32:50.793Z,14.07
2016-06-18T03:33:50.813Z,14.17
2016-06-18T03:34:50.832Z,14.22
2016-06-18T03:35:50.868Z,14.24
2016-06-18T03:36:50.885Z,14.17
2016-06-18T03:37:50.905Z,14.15
2016-06-18T03:38:50.924Z,14.27
2016-06-18T03:40:50.994Z,14.33
2016-06-18T03:41:50.997Z,14.39
2016-06-18T03:43:51.066Z,14.36
2016-06-18T03:45:51.105Z,14.46
2016-06-18T03:46:51.733Z,14.47
2016-06-18T03:47:51.143Z,14.43
2016-06-18T03:48:51.818Z,14.39
2016-06-18T03:49:51.212Z,14.43
2016-06-18T03:50:51.231Z,14.47
2016-06-18T03:51:51.266Z,14.52
2016-06-18T03:52:51.269Z,14.51
2016-06-18T03:54:06.198Z,14.62
2016-06-18T03:54:51.323Z,14.7
2016-06-18T03:55:51.357Z,14.57
2016-06-18T03:56:51.361Z,14.6
2016-06-18T03:57:51.396Z,14.68
2016-06-18T03:58:51.431Z,14.65
2016-06-18T03:59:51.450Z,14.65
2016-06-18T04:01:51.503Z,14.62
2016-06-18T04:02:51.523Z,14.64
2016-06-18T04:04:06.452Z,14.7
2016-06-18T04:04:51.561Z,14.69
2016-06-18T04:05:51.596Z,14.62
2016-06-18T04:07:06.524Z,14.81
2016-06-18T04:07:52.243Z,14.73
2016-06-18T04:08:51.669Z,14.73
2016-06-18T04:10:06.599Z,14.86
2016-06-18T04:10:51.708Z,14.91
2016-06-18T04:11:51.765Z,15.27
2016-06-18T04:12:51.775Z,15.56
2016-06-18T04:13:51.801Z,16.07
2016-06-18T04:14:51.840Z,16.49
2016-06-18T04:15:51.865Z,17.18
2016-06-18T04:16:51.902Z,17.26
2016-06-18T04:17:52.517Z,17.82
2016-06-18T04:18:51.944Z,18.25
2016-06-18T04:19:51.966Z,18.6
2016-06-18T04:20:52.002Z,18.7
2016-06-18T04:21:52.023Z,18.98
2016-06-18T04:22:52.057Z,19.4
2016-06-18T04:24:06.988Z,19.31
2016-06-18T04:24:52.113Z,19.61
2016-06-18T04:26:07.043Z,20.21
2016-06-18T04:26:52.168Z,20.57
2016-06-18T04:27:52.188Z,20.67
2016-06-18T04:28:52.223Z,21.04
2016-06-18T04:29:52.242Z,21.32
2016-06-18T04:30:52.262Z,21.52
2016-06-18T04:31:52.296Z,21.46
2016-06-18T04:33:07.241Z,21.64
2016-06-18T04:33:52.366Z,21.67
2016-06-18T04:34:52.384Z,21.86
2016-06-18T04:35:52.419Z,21.58
2016-06-18T04:36:52.470Z,21.64
2016-06-18T04:37:53.066Z,22.06
2016-06-18T04:38:52.508Z,22.37
2016-06-18T04:39:52.527Z,22.61
2016-06-18T04:40:52.561Z,22.68
2016-06-18T04:42:07.490Z,23.01
2016-06-18T04:42:52.615Z,23.23
2016-06-18T04:43:52.650Z,23.57
2016-06-18T04:44:52.685Z,23.7
2016-06-18T04:45:52.720Z,23.85
2016-06-18T04:46:52.739Z,24.09
2016-06-18T04:47:52.773Z,24.49
2016-06-18T04:48:52.793Z,24.43
2016-06-18T04:49:53.421Z,24.43
2016-06-18T04:50:52.862Z,24.87
2016-06-18T04:52:07.807Z,24.96
2016-06-18T04:52:53.510Z,25.36
2016-06-18T04:53:52.950Z,25.5
2016-06-18T04:54:52.984Z,25.03
2016-06-18T04:55:53.020Z,25.21
2016-06-18T04:57:07.949Z,25.58
2016-06-18T04:57:53.074Z,25.9
2016-06-18T04:58:53.108Z,26.45
2016-06-18T04:59:53.127Z,26.43
2016-06-18T05:00:53.162Z,26.55
2016-06-18T05:01:53.212Z,26.32
2016-06-18T05:02:53.231Z,26.44
2016-06-18T05:03:53.266Z,26.63
2016-06-18T05:04:53.285Z,26.5
2016-06-18T05:05:53.320Z,26.92
2016-06-18T05:06:53.355Z,27.21
2016-06-18T05:08:08.299Z,27.66
2016-06-18T05:08:54.627Z,27.55
2016-06-18T05:09:54.100Z,27.66
2016-06-18T05:10:53.477Z,27.7
2016-06-18T05:11:53.512Z,28.11
2016-06-18T05:12:53.547Z,28.27
2016-06-18T05:13:53.583Z,28.17
2016-06-18T05:14:53.616Z,28.49
2016-06-18T05:17:53.705Z,27.59
2016-06-18T05:18:53.756Z,27.97
2016-06-18T05:19:53.774Z,28.18
2016-06-18T05:20:53.809Z,28.39
2016-06-18T05:21:53.844Z,28.58
2016-06-18T05:23:08.789Z,28.48
2016-06-18T05:23:53.914Z,28.7
2016-06-18T05:24:53.949Z,28.8
2016-06-18T05:25:53.982Z,29.04
2016-06-18T05:26:54.017Z,29
2016-06-18T05:27:54.037Z,29.02
2016-06-18T05:29:08.980Z,28.83
2016-06-18T05:29:54.121Z,28.81
2016-06-18T05:30:54.750Z,28.98
2016-06-18T05:31:54.175Z,28.9
2016-06-18T05:33:54.261Z,29.15
2016-06-18T05:34:54.279Z,29.31
2016-06-18T05:35:54.314Z,29.51
2016-06-18T05:37:09.258Z,29.24
2016-06-18T05:37:54.383Z,29.33
2016-06-18T05:38:54.418Z,28.92
2016-06-18T05:39:54.453Z,29.28
2016-06-18T05:40:54.504Z,29.65
2016-06-18T05:41:54.522Z,29.45
2016-06-18T05:42:54.558Z,30.04
2016-06-18T05:43:54.639Z,30.08
2016-06-18T05:45:09.536Z,30.13
2016-06-18T05:45:54.661Z,29.9
2016-06-18T05:47:54.731Z,29.74
2016-06-18T05:48:54.765Z,29.76
2016-06-18T05:49:54.800Z,30
2016-06-18T05:50:54.835Z,29.52
2016-06-18T05:52:54.904Z,29.33
2016-06-18T05:53:54.938Z,29.24
2016-06-18T05:54:55.583Z,29.64
2016-06-18T05:55:55.008Z,30.05
2016-06-18T05:56:55.043Z,29.95
2016-06-18T05:57:55.078Z,30.01
2016-06-18T05:58:55.113Z,29.82
2016-06-18T05:59:55.147Z,29.73
2016-06-18T06:01:10.091Z,29.97
2016-06-18T06:01:55.232Z,29.85
2016-06-18T06:02:55.252Z,30.13
2016-06-18T06:03:55.286Z,30.58
2016-06-18T06:04:55.320Z,30.31
2016-06-18T06:05:55.355Z,30.83
2016-06-18T06:06:55.703Z,30.95
2016-06-18T06:07:55.425Z,30.54
2016-06-18T06:08:55.459Z,30.47
2016-06-18T06:09:55.510Z,30.65
2016-06-18T06:10:55.529Z,30.76
2016-06-18T06:11:55.580Z,31.13
2016-06-18T06:12:55.598Z,30.75
2016-06-18T06:13:55.632Z,30.73
2016-06-18T06:14:55.668Z,31.19
2016-06-18T06:15:55.718Z,31.34
2016-06-18T06:17:10.647Z,31.48
2016-06-18T06:17:55.788Z,31.04
2016-06-18T06:19:56.450Z,31.48
2016-06-18T06:20:55.907Z,31.81
2016-06-18T06:21:55.926Z,32
2016-06-18T06:22:55.960Z,32.29
2016-06-18T06:24:10.905Z,32.92
2016-06-18T06:24:56.030Z,32.65
2016-06-18T06:26:10.975Z,32.11
2016-06-18T06:26:56.116Z,32.35
2016-06-18T06:27:56.151Z,32.32
2016-06-18T06:28:56.172Z,32.25
2016-06-18T06:29:56.222Z,32.23
2016-06-18T06:30:56.258Z,32.52
2016-06-18T06:32:11.203Z,32.57
2016-06-18T06:32:56.328Z,32.41
2016-06-18T06:33:56.364Z,32.11
2016-06-18T06:34:56.398Z,32.56
2016-06-18T06:35:56.433Z,30.77
2016-06-18T06:36:56.468Z,30.22
2016-06-18T06:37:56.518Z,30.8
2016-06-18T06:38:56.537Z,31.26
2016-06-18T06:40:56.639Z,31.91
2016-06-18T06:42:11.567Z,31.7
2016-06-18T06:42:56.692Z,32.14
2016-06-18T06:43:56.727Z,32.28
2016-06-18T06:44:57.370Z,32.3
2016-06-18T06:45:56.796Z,31.35
2016-06-18T06:46:56.832Z,31.29
2016-06-18T06:47:57.506Z,30.27
2016-06-18T06:48:56.900Z,30.29
2016-06-18T06:49:56.951Z,30.92
2016-06-18T06:50:57.580Z,31.25
2016-06-18T06:51:57.020Z,31.36
2016-06-18T06:52:57.056Z,31.43
2016-06-18T06:53:57.089Z,31.43
2016-06-18T06:54:57.734Z,31.04
2016-06-18T06:55:57.159Z,31.29
2016-06-18T06:56:57.209Z,31.5
2016-06-18T06:57:57.838Z,31.53
2016-06-18T06:58:57.279Z,32
2016-06-18T07:00:12.208Z,31.2
2016-06-18T07:01:57.384Z,31.06
2016-06-18T07:02:57.418Z,30.76
2016-06-18T07:04:12.361Z,30.31
2016-06-18T07:04:57.518Z,30.91
2016-06-18T07:05:57.522Z,30.94
2016-06-18T07:06:57.557Z,31.1
2016-06-18T07:07:57.607Z,31.5
2016-06-18T07:08:57.642Z,31.76
2016-06-18T07:10:57.695Z,30.94
2016-06-18T07:11:57.746Z,30.07
2016-06-18T07:12:57.781Z,29.65
2016-06-18T07:13:57.815Z,29.28
2016-06-18T07:14:57.850Z,29.04
2016-06-18T07:15:57.899Z,29.51
2016-06-18T07:16:58.528Z,28.93
2016-06-18T07:17:57.938Z,29.3
2016-06-18T07:18:57.988Z,29.68
2016-06-18T07:20:12.934Z,28.98
2016-06-18T07:20:58.059Z,29
2016-06-18T07:21:58.092Z,28.88
2016-06-18T07:23:58.162Z,28.56
2016-06-18T07:24:58.197Z,29.12
2016-06-18T07:26:58.266Z,30.34
2016-06-18T07:27:58.302Z,30.61
2016-06-18T07:28:58.351Z,30.07
2016-06-18T07:30:13.279Z,30.08
2016-06-18T07:31:13.315Z,30.13
2016-06-18T07:31:58.440Z,29.79
2016-06-18T07:32:58.475Z,29.57
2016-06-18T07:33:59.134Z,30.17
2016-06-18T07:34:58.544Z,30.57
2016-06-18T07:36:13.520Z,30.65
2016-06-18T07:36:58.614Z,30.77
2016-06-18T07:38:58.682Z,30.19
2016-06-18T07:39:58.718Z,29.19
2016-06-18T07:41:58.803Z,29.14
2016-06-18T07:42:58.821Z,29.12
2016-06-18T07:43:58.856Z,29.06
2016-06-18T07:45:13.800Z,29.31
2016-06-18T07:45:58.925Z,29.53
2016-06-18T07:46:58.960Z,29.98
2016-06-18T07:47:58.996Z,30.32
2016-06-18T07:48:59.030Z,30.65
2016-06-18T07:49:59.064Z,30.55
2016-06-18T07:50:59.099Z,31.21
2016-06-18T07:52:14.043Z,31.51
2016-06-18T07:52:59.168Z,31.69
2016-06-18T07:53:59.203Z,30.94
2016-06-18T07:54:59.237Z,30.99
2016-06-18T07:55:59.273Z,31.48
2016-06-18T07:56:59.901Z,31.61
2016-06-18T07:57:59.358Z,31.44
2016-06-18T07:58:59.377Z,31.5
2016-06-18T07:59:59.412Z,31.58
2016-06-18T08:00:59.446Z,31.51
2016-06-18T08:01:59.497Z,32.06
2016-06-18T08:03:00.109Z,32.37
2016-06-18T08:03:59.551Z,31.84
2016-06-18T08:04:59.616Z,31.54
2016-06-18T08:05:59.636Z,31.43
2016-06-18T08:07:14.564Z,31.58
2016-06-18T08:07:59.689Z,31.75
2016-06-18T08:08:59.724Z,31.57
2016-06-18T08:09:59.774Z,31.58
2016-06-18T08:10:59.793Z,31.25
2016-06-18T08:12:00.437Z,30.45
2016-06-18T08:12:59.879Z,29.6
2016-06-18T08:13:59.898Z,29.53
2016-06-18T08:16:14.892Z,30.02
2016-06-18T08:17:14.911Z,29.79
2016-06-18T08:18:00.036Z,30.1
2016-06-18T08:19:00.086Z,30.73
2016-06-18T08:20:00.122Z,31.66
2016-06-18T08:21:00.141Z,31.88
2016-06-18T08:22:00.175Z,31.99
2016-06-18T08:23:00.209Z,31.47
2016-06-18T08:25:00.357Z,30.42
2016-06-18T08:26:00.330Z,29.8
2016-06-18T08:27:00.349Z,29.09
2016-06-18T08:28:00.384Z,28.52
2016-06-18T08:29:00.434Z,28.59
2016-06-18T08:30:01.046Z,29.08
2016-06-18T08:31:00.487Z,29.95
2016-06-18T08:32:00.523Z,29.73
2016-06-18T08:33:15.467Z,29.39
2016-06-18T08:34:00.608Z,29
2016-06-18T08:36:00.661Z,29.02
2016-06-18T08:37:00.712Z,28.98
2016-06-18T08:38:00.730Z,28.73
2016-06-18T08:39:15.675Z,28.22
2016-06-18T08:40:00.800Z,28.24
2016-06-18T08:41:00.819Z,27.87
2016-06-18T08:42:00.854Z,27.7
2016-06-18T08:43:00.888Z,27.65
2016-06-18T08:44:01.613Z,27.47
2016-06-18T08:47:10.250Z,27.24
2016-06-18T08:48:33.241Z,30.35
2016-06-18T08:49:33.279Z,30.8
2016-06-18T08:50:33.315Z,30.77
2016-06-18T08:51:33.335Z,30.72
2016-06-18T08:52:48.278Z,30.73
2016-06-18T08:53:33.408Z,31.14
2016-06-18T08:54:33.442Z,31.43
2016-06-18T08:56:33.513Z,31.48
2016-06-18T08:57:33.548Z,30.73
2016-06-18T08:58:33.583Z,30.51
2016-06-18T08:59:33.618Z,31.02
2016-06-18T09:00:33.668Z,30.73
2016-06-18T09:01:33.689Z,30.08
2016-06-18T09:02:34.318Z,29.33
2016-06-18T09:03:33.757Z,28.85
2016-06-18T09:04:33.793Z,28.46
2016-06-18T09:05:34.453Z,28.19
2016-06-18T09:06:34.456Z,28.59
2016-06-18T09:07:33.896Z,29.19
2016-06-18T09:08:34.557Z,29.83
2016-06-18T09:09:33.951Z,30.01
2016-06-18T09:10:33.986Z,30.53
2016-06-18T09:11:34.004Z,31.2
2016-06-18T09:12:34.055Z,31.5
2016-06-18T09:13:34.090Z,31.76
2016-06-18T09:14:49.015Z,30.97
2016-06-18T09:15:34.159Z,31.34
2016-06-18T09:16:34.178Z,31.34
2016-06-18T09:17:34.214Z,30.91
2016-06-18T09:20:13.425Z,30.22
2016-06-18T09:21:12.897Z,29.49
2016-06-18T09:22:12.916Z,29.02
2016-06-18T09:23:13.545Z,28.52
2016-06-18T09:24:27.892Z,28.11
2016-06-18T09:25:13.005Z,28.17
2016-06-18T09:26:13.039Z,28.21
2016-06-18T09:27:13.715Z,27.75
2016-06-18T09:28:13.125Z,27.4
2016-06-18T09:29:13.159Z,27.34
2016-06-18T09:31:13.776Z,26.89
2016-06-18T09:32:28.733Z,26.48
2016-06-18T09:33:13.830Z,26.48
2016-06-18T09:34:28.177Z,26.2
2016-06-18T09:35:13.899Z,26.32
2016-06-18T09:36:13.324Z,26.33
2016-06-18T09:37:13.952Z,25.99
2016-06-18T09:38:13.378Z,25.58
2016-06-18T09:39:28.351Z,25.73
2016-06-18T09:40:13.448Z,25.7
2016-06-18T09:41:13.483Z,25.62
2016-06-18T09:42:13.517Z,25.54
2016-06-18T09:43:13.537Z,25.21
2016-06-18T09:44:13.570Z,25.08
2016-06-18T09:45:13.621Z,25.02
2016-06-18T09:46:13.640Z,24.87
2016-06-18T09:49:13.713Z,24.8
2016-06-18T09:50:14.357Z,24.57
2016-06-18T09:52:13.833Z,24.9
2016-06-18T09:53:13.836Z,24.87
2016-06-18T09:54:28.792Z,24.78
2016-06-18T09:55:14.515Z,24.47
2016-06-18T09:56:13.940Z,24.58
2016-06-18T09:57:13.960Z,24.46
2016-06-18T09:58:14.619Z,24.4
2016-06-18T09:59:14.028Z,24.02
2016-06-18T10:00:14.657Z,24.16
2016-06-18T10:01:15.113Z,24.22
2016-06-18T10:02:14.664Z,24.24
2016-06-18T10:03:14.152Z,24.12
2016-06-18T10:04:14.187Z,24.13
2016-06-18T10:05:14.205Z,24.2
2016-06-18T10:07:14.275Z,24.35
2016-06-18T10:08:14.295Z,24.49
2016-06-18T10:09:29.252Z,24.42
2016-06-18T10:10:14.380Z,24.55
2016-06-18T10:11:29.305Z,24.6
2016-06-18T10:12:14.418Z,24.55
2016-06-18T10:13:14.468Z,24.46
2016-06-18T10:14:14.471Z,24.55
2016-06-18T10:15:14.505Z,24.42
2016-06-18T10:16:14.525Z,24.43
2016-06-18T10:17:15.185Z,24.52
2016-06-18T10:18:15.204Z,24.55
2016-06-18T10:19:14.629Z,24.67
2016-06-18T10:20:14.649Z,24.69
2016-06-18T10:21:15.308Z,24.77
2016-06-18T10:22:29.639Z,24.88
2016-06-18T10:23:29.659Z,24.78
2016-06-18T10:24:15.365Z,24.61
2016-06-18T10:25:15.415Z,24.45
2016-06-18T10:26:14.840Z,24.34
2016-06-18T10:27:29.782Z,24.47
2016-06-18T10:28:14.910Z,24.57
2016-06-18T10:29:14.914Z,24.45
2016-06-18T10:30:14.948Z,24.5
2016-06-18T10:31:14.983Z,24.42
2016-06-18T10:32:15.002Z,24
2016-06-18T10:33:15.053Z,23.38
2016-06-18T10:34:15.056Z,22.77
2016-06-18T10:35:15.716Z,22.45
2016-06-18T10:36:15.735Z,22.09
2016-06-18T10:37:15.159Z,22.1
2016-06-18T10:38:15.210Z,21.88
2016-06-18T10:39:15.199Z,21.69
2016-06-18T10:40:15.233Z,21.59
2016-06-18T10:41:15.283Z,21.52
2016-06-18T10:42:15.287Z,21.49
2016-06-18T10:43:30.243Z,21.5
2016-06-18T10:44:15.949Z,21.53
2016-06-18T10:45:15.376Z,21.64
2016-06-18T10:46:15.410Z,21.58
2016-06-18T10:47:15.429Z,21.65
2016-06-18T10:48:15.479Z,21.59
2016-06-18T10:49:15.498Z,21.68
2016-06-18T10:50:15.518Z,21.77
2016-06-18T10:51:15.552Z,21.75
2016-06-18T10:52:15.587Z,21.82
2016-06-18T10:54:15.641Z,21.86
2016-06-18T10:55:15.660Z,21.52
2016-06-18T10:56:15.710Z,21.25
2016-06-18T10:57:15.729Z,20.98
2016-06-18T10:58:15.748Z,20.89
2016-06-18T10:59:30.721Z,20.82
2016-06-18T11:00:15.803Z,20.58
2016-06-18T11:01:15.837Z,20.38
2016-06-18T11:02:15.856Z,20.32
2016-06-18T11:03:16.485Z,20.33
2016-06-18T11:04:15.925Z,20.48
2016-06-18T11:05:15.976Z,20.69
2016-06-18T11:06:15.979Z,20.92
2016-06-18T11:07:16.046Z,21.27
2016-06-18T11:08:16.627Z,21.5
2016-06-18T11:09:16.053Z,21.83
2016-06-18T11:10:16.696Z,22.22
2016-06-18T11:11:31.043Z,22.72
2016-06-18T11:12:16.141Z,22.85
2016-06-18T11:13:16.175Z,23.15
2016-06-18T11:14:31.131Z,23.51
2016-06-18T11:15:16.229Z,23.57
2016-06-18T11:16:16.263Z,23.72
2016-06-18T11:17:16.283Z,23.85
2016-06-18T11:18:16.927Z,23.87
2016-06-18T11:19:16.337Z,23.76
2016-06-18T11:20:16.371Z,23.61
2016-06-18T11:21:16.406Z,23.51
2016-06-18T11:22:16.441Z,23.53
2016-06-18T11:23:16.459Z,23.63
2016-06-18T11:24:16.495Z,23.55
2016-06-18T11:25:16.543Z,23.43
2016-06-18T11:27:16.566Z,23.42
2016-06-18T11:28:17.803Z,23.15
2016-06-18T11:30:16.669Z,22.57
2016-06-18T11:31:16.689Z,22.42
2016-06-18T11:32:16.724Z,22.46
2016-06-18T11:33:16.743Z,22.68
2016-06-18T11:34:16.777Z,22.79
2016-06-18T11:41:18.604Z,22.86
2016-06-18T11:42:18.623Z,22.95
2016-06-18T11:43:18.658Z,22.95
2016-06-18T11:44:18.693Z,23.04
2016-06-18T11:45:18.712Z,22.98
2016-06-18T11:46:18.762Z,22.85
2016-06-18T11:47:33.704Z,22.92
2016-06-18T11:48:19.441Z,23.01
2016-06-18T11:49:37.695Z,22.98
2016-06-18T11:50:33.776Z,22.83
2016-06-18T11:51:18.889Z,22.82
2016-06-18T11:52:33.831Z,22.79
2016-06-18T11:53:18.943Z,22.94
2016-06-18T11:54:18.978Z,23.1
2016-06-18T11:55:18.997Z,23.27
2016-06-18T11:56:19.626Z,23.36
2016-06-18T11:57:19.051Z,23.19
2016-06-18T11:58:19.086Z,23.16
2016-06-18T11:59:19.732Z,23.28
2016-06-18T12:00:19.142Z,23.32
2016-06-18T12:01:19.772Z,23.15
2016-06-18T12:02:19.198Z,23.19
2016-06-18T12:03:19.233Z,23.05
2016-06-18T12:04:19.269Z,23
2016-06-18T12:05:34.210Z,22.9
2016-06-18T12:06:34.245Z,22.75
2016-06-18T12:07:19.343Z,22.67
2016-06-18T12:08:34.300Z,22.77
2016-06-18T12:09:19.397Z,22.7
2016-06-18T12:10:19.432Z,22.67
2016-06-18T12:11:19.466Z,22.62
2016-06-18T12:12:19.502Z,22.54
2016-06-18T12:13:19.520Z,22.45
2016-06-18T12:14:19.539Z,22.51
2016-06-18T12:16:19.609Z,22.55
2016-06-18T12:17:20.237Z,22.61
2016-06-18T12:18:20.274Z,22.65
2016-06-18T12:19:19.714Z,22.68
2016-06-18T12:20:19.749Z,22.7
2016-06-18T12:21:34.675Z,22.72
2016-06-18T12:22:19.788Z,22.52
2016-06-18T12:23:20.416Z,22.49
2016-06-18T12:24:34.763Z,22.47
2016-06-18T12:25:19.877Z,22.6
2016-06-18T12:26:19.895Z,22.6
2016-06-18T12:27:19.930Z,22.62
2016-06-18T12:28:19.949Z,22.55
2016-06-18T12:29:20.000Z,22.49
2016-06-18T12:30:20.019Z,22.54
2016-06-18T12:31:20.037Z,22.57
2016-06-18T12:32:20.072Z,22.58
2016-06-18T12:33:20.091Z,22.58
2016-06-18T12:34:20.125Z,22.6
2016-06-18T12:35:20.161Z,22.61
2016-06-18T12:36:20.790Z,22.47
2016-06-18T12:37:20.215Z,22.42
2016-06-18T12:38:20.250Z,22.31
2016-06-18T12:39:20.862Z,22.3
2016-06-18T12:40:35.819Z,22.22
2016-06-18T12:41:20.338Z,22.1
2016-06-18T12:42:20.357Z,21.92
2016-06-18T12:43:20.376Z,21.58
2016-06-18T12:44:20.411Z,21.62
2016-06-18T12:45:20.446Z,21.8
2016-06-18T12:46:20.464Z,21.98
2016-06-18T12:47:20.500Z,22.09
2016-06-18T12:48:20.518Z,22.4
2016-06-18T12:49:20.553Z,22.68
2016-06-18T12:50:20.588Z,22.9
2016-06-18T12:51:20.607Z,23.05
2016-06-18T12:52:20.643Z,23.2
2016-06-18T12:53:21.865Z,23.43
2016-06-18T12:54:20.712Z,23.31
2016-06-18T12:55:35.654Z,23.25
2016-06-18T12:57:20.787Z,22.73
2016-06-18T12:58:20.852Z,22.7
2016-06-18T12:59:20.839Z,22.72
2016-06-18T13:00:21.515Z,22.82
2016-06-18T13:01:20.893Z,23.01
2016-06-18T13:02:20.929Z,23.04
2016-06-18T13:03:20.947Z,22.97
2016-06-18T13:04:20.981Z,22.98
2016-06-18T13:05:35.939Z,22.88
2016-06-18T13:06:21.067Z,22.8
2016-06-18T13:07:21.071Z,22.91
2016-06-18T13:10:21.768Z,23.36
2016-06-18T13:11:36.710Z,23.33
2016-06-18T13:13:21.842Z,23.33
2016-06-18T13:14:22.485Z,23.28
2016-06-18T13:15:21.957Z,23.28
2016-06-18T13:16:21.930Z,23.23
2016-06-18T13:17:21.964Z,23.25
2016-06-18T13:18:21.998Z,23.35
2016-06-18T13:19:22.018Z,23.5
2016-06-18T13:20:22.037Z,23.55
2016-06-18T13:21:21.478Z,23.69
2016-06-18T13:22:22.107Z,23.73
2016-06-18T13:23:37.064Z,23.76
2016-06-18T13:24:22.162Z,23.78
2016-06-18T13:25:37.120Z,23.36
2016-06-18T13:26:22.218Z,23.39
2016-06-18T13:27:36.566Z,23.27
2016-06-18T13:28:22.289Z,23.36
2016-06-18T13:29:22.324Z,23.33
2016-06-18T13:30:22.328Z,23.12
2016-06-18T13:31:37.286Z,23.13
2016-06-18T13:32:22.399Z,23.27
2016-06-18T13:33:22.418Z,23.42
2016-06-18T13:34:22.454Z,23.39
2016-06-18T13:35:23.083Z,23.4
2016-06-18T13:36:22.508Z,23.28
2016-06-18T13:37:23.137Z,23.27
2016-06-18T13:38:21.952Z,23.12
2016-06-18T13:39:22.597Z,23.15
2016-06-18T13:40:22.615Z,23.27
2016-06-18T13:41:22.651Z,23.35
2016-06-18T13:42:22.669Z,23.25
2016-06-18T13:43:37.033Z,23.32
2016-06-18T13:44:22.740Z,23.25
2016-06-18T13:46:22.184Z,23.13
2016-06-18T13:47:22.219Z,23.15
2016-06-18T13:48:22.253Z,23.35
2016-06-18T13:49:22.272Z,23.43
2016-06-18T13:50:22.307Z,23.51
2016-06-18T13:51:22.326Z,23.55
2016-06-18T13:52:22.392Z,23.4
2016-06-18T13:53:22.990Z,23.46
2016-06-18T13:54:22.430Z,23.5
2016-06-18T13:55:22.464Z,23.5
2016-06-18T13:56:23.078Z,23.55